TRAVEL WEATHER INFO - USA

NOAA Site Locator - Search for Station Information

CITY Forecast Link METAR Identifier Last Updated Temperature Dew Point Humidity Pressure Wind Direction Wind Speed Wind Gust Weather Rain/hr Google Maps
Albuqueque WEATHER KABQ 11/23/2017 22:52 53.6 32.0 44 30.20 NNE 4 4 Broken Clouds --- Albuquerque, NM Map
Anchorage WEATHER PAED 11/23/2017 22:56 5.0 3.2 92 29.40 --- 0 0 Clear --- Anchorage, AK Map
Atlanta WEATHER KATL 11/23/2017 22:52 48.2 39.2 71 30.02 N 0 0 Scattered Clouds --- ATLANTA, GA Map
Birmingham WEATHER KBHM 11/23/2017 22:53 39.2 35.6 87 30.06 --- 0 0 Clear --- Birmingham, AL Map
Boston WEATHER KBOS 11/23/2017 22:54 35.6 17.6 47 29.99 W 4 4 Scattered Clouds --- BOSTON, MA Map
Cheyenne WEATHER KCYS 11/23/2017 22:53 55.4 30.2 38 29.96 W 17 17 Clear --- Cheyenne, WY Map
Chicago O'Hare WEATHER KORD 11/23/2017 22:51 33.8 26.6 75 29.90 S 4 4 Clear --- CHICAGO, IL Map
Colorado Springs WEATHER KCOS 11/23/2017 21:54 53.6 28.4 38 30.05 N 0 0 Overcast --- Colo. Springs, CO Map
Dallas WEATHER KADS 11/23/2017 22:35 51.8 30.2 43 30.06 S 5 5 Clear --- Dallas, TX Map
Denver WEATHER KDEN 11/23/2017 22:53 57.2 23.0 26 29.94 SSW 14 14 Broken Clouds --- DENVER, CO Map
Detroit WEATHER KDET 11/23/2017 22:53 37.4 24.8 60 29.96 SW 8 8 Overcast --- Detroit, MI Map
Dover WEATHER KDOV 11/23/2017 22:56 30.2 28.4 93 30.08 --- 0 0 Clear --- DOVER, DE Map
Fort Lauderdale WEATHER KFXE 11/23/2017 21:53 73.4 73.4 100 --- SW 6 6 Clear --- Fort Lauderdale, FL Map
Honolulu WEATHER PHNL 11/23/2017 22:53 75.2 57.2 54 30.07 NNE 11 11 Scattered Clouds --- Honolulu, HI Map
JFK Airport WEATHER KJFK 11/23/2017 22:51 37.4 21.2 52 30.05 W 5 5 Few Clouds --- JFK Airport, NYC Map
Key West WEATHER KEYW 11/23/2017 21:17 --- --- --- 29.90 ESE 3 3 Overcast 0.01 Key West, FL Map
Los Angeles WEATHER KLAX 11/23/2017 22:53 68.0 57.2 68 29.93 SW 4 4 Clear --- Los Angeles, CA Map
Louisville WEATHER KSDF 11/23/2017 22:56 37.4 26.6 65 30.03 SE 4 4 Clear --- Louisville, KY Map
Minneapolis WEATHER KMSP 11/23/2017 22:53 46.4 32.0 57 29.63 S 9 9 Broken Clouds --- Minneapolis, MN Map
Morgantown WEATHER KMGW 11/23/2017 22:53 33.8 23.0 64 30.05 --- 0 0 Clear --- Morgantown, WV Map
New Orleans WEATHER KNEW 11/23/2017 22:53 55.4 37.4 51 30.06 N 16 16 Clear --- New Orleans, LA Map
New York City WEATHER KNYC 11/23/2017 22:51 37.4 21.2 52 30.06 N 0 0 Clear --- New York, NY Map
Omaha WEATHER KOMA 11/23/2017 22:52 48.2 37.4 66 29.78 SSE 9 9 Overcast --- Omaha, NE Map
Philadelphia WEATHER KPHL 11/23/2017 22:54 35.6 23.0 60 30.08 W 5 5 Clear --- Philadelphia, PA Map
Pittsburgh WEATHER KPIT 11/23/2017 22:51 33.8 21.2 59 30.02 N 0 0 Few Clouds --- Pittsburgh, PA Map
Seattle WEATHER KSEA 11/23/2017 23:32 48.2 44.6 87 29.93 S 11 11 Scattered Clouds --- Seattle, WA Map
San Francisco WEATHER KSFO 11/23/2017 22:56 62.6 59.0 88 30.09 N 3 3 Overcast --- San Francisco, CA Map
Washington DC WEATHER KDCA 11/23/2017 22:52 37.4 26.6 65 30.08 SW 4 4 Clear --- Washington, DC Map